Data for 07/31/2016

Time Sea-Level Adjusted Pressure Absolute Pressure Temperature Relative Humidity Dew Point   
(mb) (inHg) (mb) (inHg) (C) (F) (%) (C) (F)
00:05 1013 29.91 842 24.86 20 67.9 39 5.7 42.2
00:10 1013 29.91 842 24.86 19.8 67.7 41 6.2 43.1
00:15 1013 29.91 843 24.89 20 68 39 5.9 42.7
00:20 1013 29.91 843 24.89 19.4 66.9 44 6.8 44.3
00:25 1013 29.91 843 24.89 18.6 65.5 47 7.3 45.1
00:30 1013 29.91 843 24.89 18.9 65.9 39 4.8 40.6
00:35 1013 29.91 843 24.89 20 67.9 37 4.9 40.8
00:40 1013 29.91 843 24.89 20.6 69 34 4.4 39.9
00:45 1013 29.91 843 24.89 21.1 70 33 4.4 39.8
00:50 1013 29.91 843 24.89 21.3 70.4 34 4.9 40.7
00:55 1014 29.94 843 24.89 21 69.9 34 4.9 40.8
01:00 1013 29.91 843 24.89 21 69.8 35 4.9 40.8
01:05 1013 29.91 843 24.89 20.8 69.4 36 5.3 41.6
01:10 1014 29.94 843 24.89 20.2 68.4 38 5.5 41.8
01:15 1014 29.94 843 24.89 19.9 67.8 38 5.3 41.6
01:20 1014 29.94 843 24.89 19.8 67.6 38 5 41.1
01:25 1014 29.94 843 24.89 19.8 67.6 37 4.9 40.8
01:30 1014 29.94 843 24.89 19.8 67.7 37 4.7 40.5
01:35 1014 29.94 843 24.89 20.1 68.1 35 4.1 39.4
01:40 1014 29.94 843 24.89 20.5 68.9 33 3.8 38.9
01:45 1014 29.94 843 24.89 20.6 69.1 33 4 39.3
01:50 1014 29.94 843 24.89 20.7 69.3 33 4.1 39.3
01:55 1014 29.94 843 24.89 20.5 68.9 32 3.5 38.3
02:00 1014 29.94 843 24.89 20.6 69.1 32 3.7 38.7
02:05 1014 29.94 843 24.89 20.3 68.6 33 3.7 38.7
02:10 1014 29.94 843 24.89 20.2 68.3 33 3.6 38.6
02:15 1014 29.94 843 24.89 20 68 37 4.8 40.7
02:20 1014 29.94 843 24.89 19.4 66.9 40 5.5 41.9
02:25 1014 29.94 843 24.89 18.7 65.6 42 5.6 42.1
02:30 1014 29.94 843 24.89 17.9 64.3 46 6.2 43.2
02:35 1014 29.94 843 24.89 17.7 63.9 44 5.4 41.7
02:40 1014 29.94 843 24.89 17.5 63.4 44 5.1 41.2
02:45 1014 29.94 844 24.92 17.3 63.2 43 4.8 40.6
02:50 1014 29.94 844 24.92 17.6 63.7 42 4.6 40.2
02:55 1014 29.94 844 24.92 17.7 63.9 42 4.6 40.3
03:00 1014 29.94 844 24.92 17.8 64.1 41 4.6 40.2
03:05 1014 29.94 844 24.92 17.8 64.1 43 5 41.1
03:10 1014 29.94 844 24.92 17.6 63.6 43 5 40.9
03:15 1014 29.94 844 24.92 17.4 63.4 44 5.3 41.5
03:20 1014 29.94 844 24.92 17.3 63.1 43 4.8 40.6
03:25 1014 29.94 844 24.92 17.4 63.3 43 4.7 40.4
03:30 1014 29.94 844 24.92 17.5 63.5 42 4.6 40.2
03:35 1014 29.94 844 24.92 17.3 63.2 44 5 41
03:40 1014 29.94 844 24.92 17 62.7 44 4.9 40.7
03:45 1014 29.94 844 24.92 16.7 62 44 4.6 40.2
03:50 1014 29.94 844 24.92 16.4 61.4 47 5.1 41.3
03:55 1015 29.97 844 24.92 15.9 60.6 49 5.2 41.3
04:00 1015 29.97 844 24.92 15.7 60.3 47 4.6 40.3
04:05 1015 29.97 844 24.92 16.1 61 45 4.3 39.7
04:10 1015 29.97 844 24.92 16.3 61.4 45 4.5 40.1
04:15 1015 29.97 844 24.92 16.3 61.3 45 4.5 40.2
04:20 1015 29.97 844 24.92 16.1 61 47 4.8 40.6
04:25 1015 29.97 844 24.92 15.9 60.6 46 4.3 39.7
04:30 1015 29.97 844 24.92 16.2 61.2 44 4 39.2
04:35 1014 29.94 844 24.92 16.4 61.6 43 4.1 39.3
04:40 1015 29.97 844 24.92 16.5 61.6 43 4.1 39.4
04:45 1015 29.97 844 24.92 16.7 62 41 3.5 38.3
04:50 1015 29.97 844 24.92 16.9 62.3 41 3.5 38.3
04:55 1015 29.97 844 24.92 17 62.5 40 3.4 38.2
05:00 1015 29.97 844 24.92 17.1 62.7 40 3.6 38.4
05:05 1015 29.97 844 24.92 17 62.5 41 3.6 38.6
05:10 1015 29.97 844 24.92 16.8 62.2 42 4 39.3
05:15 1015 29.97 844 24.92 16 60.9 46 4.6 40.2
05:20 1015 29.97 844 24.92 15.7 60.2 45 3.8 38.9
05:25 1015 29.97 844 24.92 15.5 60 47 4.5 40
05:30 1015 29.97 844 24.92 15.3 59.6 48 4.5 40
05:35 1015 29.97 844 24.92 15.3 59.5 50 5 40.9
05:40 1015 29.97 844 24.92 15.3 59.5 47 4.1 39.4
05:45 1015 29.97 844 24.92 15.4 59.7 47 4.2 39.6
05:50 1015 29.97 844 24.92 15.5 59.9 46 3.9 39
05:55 1015 29.97 844 24.92 15.7 60.3 45 3.8 38.8
06:00 1015 29.97 844 24.92 16 60.8 45 4.1 39.4
06:05 1015 29.97 844 24.92 16.2 61.1 43 3.8 38.8
06:10 1015 29.97 844 24.92 16.4 61.5 43 3.9 39.1
06:15 1015 29.97 844 24.92 16.6 61.8 42 3.8 38.9
06:20 1015 29.97 844 24.92 16.7 62 42 3.9 39
06:25 1015 29.97 844 24.92 16.8 62.3 41 3.8 38.8
06:30 1015 29.97 844 24.92 17.1 62.8 39 3.3 38
06:35 1015 29.97 844 24.92 17.4 63.4 40 3.6 38.5
06:40 1015 29.97 844 24.92 17.6 63.7 39 3.5 38.2
06:45 1015 29.97 844 24.92 17.8 64.1 39 3.7 38.6
06:50 1015 29.97 844 24.92 18.2 64.7 39 4 39.2
06:55 1015 29.97 844 24.92 18.6 65.4 38 4.1 39.4
07:00 1015 29.97 844 24.92 18.6 65.5 38 4.2 39.5
07:05 1015 29.97 844 24.92 18.6 65.5 38 4.1 39.4
07:10 1015 29.97 844 24.92 18.9 66 38 4.4 39.9
07:15 1015 29.97 844 24.92 19 66.3 38 4.6 40.3
07:20 1015 29.97 844 24.92 19.4 66.9 38 4.9 40.8
07:25 1015 29.97 844 24.92 20 68 35 4.2 39.6
07:30 1015 29.97 844 24.92 20.2 68.4 36 4.7 40.5
07:35 1015 29.97 844 24.92 20.4 68.8 36 4.9 40.7
07:40 1015 29.97 844 24.92 20.7 69.3 34 4.3 39.7
07:45 1015 29.97 844 24.92 21.5 70.7 32 4.2 39.5
07:50 1015 29.97 844 24.92 21.5 70.7 31 4 39.2
07:55 1015 29.97 844 24.92 22.1 71.7 31 4.5 40
08:00 1015 29.97 844 24.92 22.7 72.9 29 4.2 39.5
08:05 1015 29.97 844 24.92 23.3 73.9 27 3.3 37.9
08:10 1015 29.97 844 24.92 23.7 74.6 26 3.2 37.8
08:15 1015 29.97 844 24.92 24 75.2 26 3.5 38.4
08:20 1015 29.97 844 24.92 24.2 75.6 26 3.7 38.7
08:25 1015 29.97 844 24.92 24.7 76.5 25 3.4 38.1
08:30 1015 29.97 844 24.92 25.1 77.2 24 3.2 37.8
08:35 1015 29.97 844 24.92 25.2 77.4 25 3.8 38.9
08:40 1015 29.97 844 24.92 25.2 77.4 23 3.2 37.7
08:45 1015 29.97 844 24.92 25.5 77.8 24 3.6 38.5
08:50 1015 29.97 844 24.92 25.5 77.8 24 3.5 38.4
08:55 1015 29.97 844 24.92 25.8 78.5 24 4.1 39.4
09:00 1015 29.97 844 24.92 25.5 77.8 25 4.2 39.6
09:05 1015 29.97 844 24.92 25.2 77.4 25 4.2 39.6
09:10 1015 29.97 844 24.92 24.5 76 26 3.9 39
09:15 1015 29.97 844 24.92 25.1 77.2 25 4.2 39.6
09:20 1015 29.97 844 24.92 25.3 77.6 24 3.4 38.2
09:25 1015 29.97 844 24.92 26 78.8 24 3.9 39
09:30 1015 29.97 844 24.92 26.3 79.3 24 4.2 39.5
09:35 1015 29.97 844 24.92 26.1 79 23 3.7 38.6
09:40 1015 29.97 844 24.92 25.8 78.5 24 3.7 38.7
09:45 1015 29.97 844 24.92 26.4 79.5 24 4.3 39.7
09:50 1015 29.97 844 24.92 25.8 78.5 23 3.5 38.2
09:55 1015 29.97 844 24.92 25.9 78.7 22 2.7 36.9
10:00 1015 29.97 844 24.92 26.5 79.6 21 3 37.4
10:05 1015 29.97 844 24.92 27.2 81 21 3 37.4
10:10 1015 29.97 844 24.92 28.2 82.7 19 2.4 36.4
10:15 1015 29.97 844 24.92 28.5 83.4 18 2.4 36.4
10:20 1015 29.97 844 24.92 28.5 83.4 19 3.3 37.9
10:25 1015 29.97 844 24.92 29.4 84.9 18 3 37.3
10:30 1015 29.97 844 24.92 30 86 15 0.7 33.3
10:35 1015 29.97 844 24.92 29.8 85.6 15 1.1 33.9
10:40 1015 29.97 844 24.92 29.4 84.9 17 1.8 35.3
10:45 1015 29.97 844 24.92 29.9 85.9 14 -0 32
10:50 1014 29.94 844 24.92 30.5 86.8 14 -0 32
10:55 1014 29.94 844 24.92 30.6 87.1 13 -0.9 30.4
11:00 1014 29.94 844 24.92 30.9 87.5 13 -0.4 31.3
11:05 1014 29.94 843 24.89 31 87.9 13 -0.5 31.1
11:10 1014 29.94 843 24.89 30.9 87.7 13 -0 31.9
11:15 1014 29.94 843 24.89 30.7 87.3 13 -0.1 31.8
11:20 1014 29.94 843 24.89 30.7 87.3 13 -0.4 31.4
11:25 1014 29.94 843 24.89 30.6 87.1 13 -0.8 30.5
11:30 1014 29.94 843 24.89 30.7 87.2 12 -1.5 29.4
11:35 1014 29.94 843 24.89 30.8 87.5 12 -1.3 29.7
11:40 1014 29.94 843 24.89 31.4 88.5 12 -0.9 30.4
11:45 1014 29.94 843 24.89 31.4 88.5 12 -0.7 30.7
11:50 1014 29.94 843 24.89 31.1 88 13 -0.5 31.1
11:55 1014 29.94 843 24.89 30.8 87.5 13 -0.8 30.6
12:00 1014 29.94 843 24.89 30.8 87.4 13 -0.5 31.1
12:05 1014 29.94 843 24.89 31.7 89 12 -0.4 31.3
12:10 1014 29.94 843 24.89 31.8 89.2 12 -0.8 30.5
12:15 1014 29.94 843 24.89 31.9 89.5 12 -0.8 30.5
12:20 1014 29.94 843 24.89 31.5 88.7 12 -0.4 31.2
12:25 1013 29.91 843 24.89 31.7 89.1 12 -0.9 30.3
12:30 1013 29.91 843 24.89 31.6 88.9 12 -0.8 30.5
12:35 1013 29.91 843 24.89 31.8 89.3 12 -0.4 31.3
12:40 1013 29.91 843 24.89 31.6 88.9 13 -0.2 31.6
12:45 1013 29.91 843 24.89 31.7 89 12 -0.8 30.6
12:50 1013 29.91 843 24.89 31.3 88.4 13 0.1 32.2
12:55 1013 29.91 843 24.89 31.5 88.7 12 -0.5 31.1
13:00 1013 29.91 842 24.86 31.5 88.7 12 -0.5 31.2
13:05 1013 29.91 842 24.86 31.3 88.3 12 -1 30.1
13:10 1013 29.91 842 24.86 31.6 88.8 12 -0.4 31.2
13:15 1013 29.91 842 24.86 31.7 89.1 12 -0.9 30.3
13:20 1013 29.91 842 24.86 31.8 89.2 12 -1 30.3
13:25 1013 29.91 842 24.86 32.1 89.8 11 -1.7 29
13:30 1013 29.91 842 24.86 32.6 90.6 10 -2.1 28.2
13:35 1013 29.91 842 24.86 32.6 90.6 9 -4 24.8
13:40 1013 29.91 842 24.86 32.4 90.3 10 -3.1 26.5
13:45 1013 29.91 842 24.86 32.8 91.1 9 -4.6 23.8
13:50 1013 29.91 842 24.86 33.1 91.5 7 -7 19.5
13:55 1013 29.91 842 24.86 33.2 91.7 7 -6.1 21
14:00 1013 29.91 842 24.86 33.3 91.9 7 -6 21.2
14:05 1013 29.91 842 24.86 32.9 91.3 8 -5.9 21.4
14:10 1013 29.91 842 24.86 33.2 91.7 8 -5.6 21.9
14:15 1013 29.91 842 24.86 33.2 91.7 8 -5.7 21.7
14:20 1013 29.91 842 24.86 33.2 91.7 7 -6.2 20.9
14:25 1013 29.91 842 24.86 33 91.3 8 -6.1 21.1
14:30 1013 29.91 842 24.86 32.9 91.1 7 -6.3 20.6
14:35 1013 29.91 842 24.86 32.9 91.2 8 -5.5 22.2
14:40 1013 29.91 842 24.86 32.9 91.3 8 -5.9 21.4
14:45 1013 29.91 842 24.86 33.1 91.5 8 -5.5 22.1
14:50 1013 29.91 842 24.86 33.1 91.5 8 -5.8 21.5
14:55 1013 29.91 842 24.86 33 91.3 7 -6.6 20.2
15:00 1013 29.91 842 24.86 33 91.3 8 -5.7 21.8
15:05 1013 29.91 842 24.86 33.1 91.5 8 -5.8 21.5
15:10 1013 29.91 842 24.86 33 91.4 8 -5.5 22.1
15:15 1013 29.91 842 24.86 32.9 91.1 8 -6 21.2
15:20 1013 29.91 842 24.86 32.8 91 8 -5.5 22.1
15:25 1013 29.91 842 24.86 33 91.3 7 -6.2 20.8
15:30 1013 29.91 842 24.86 32.8 91 8 -4.7 23.5
15:35 1013 29.91 842 24.86 32.3 90.1 10 -2.4 27.7
15:40 1013 29.91 842 24.86 32.1 89.8 10 -2.9 26.7
15:45 1013 29.91 842 24.86 32.1 89.8 10 -3 26.6
15:50 1013 29.91 842 24.86 32.3 90.2 10 -2.7 27.2
15:55 1013 29.91 842 24.86 32.3 90.2 10 -3.1 26.4
16:00 1013 29.91 842 24.86 32.2 90 10 -3.1 26.3
16:05 1013 29.91 842 24.86 32.3 90.2 10 -2.5 27.5
16:10 1013 29.91 842 24.86 32.1 89.8 11 -2.2 28.1
16:15 1013 29.91 842 24.86 31.8 89.3 10 -2.6 27.3
16:20 1013 29.91 842 24.86 31.8 89.3 11 -2.5 27.6
16:25 1013 29.91 842 24.86 31.7 89.1 11 -1.8 28.7
16:30 1013 29.91 842 24.86 31.5 88.7 11 -1.9 28.7
16:35 1013 29.91 842 24.86 31.5 88.7 11 -2.1 28.3
16:40 1013 29.91 842 24.86 31.4 88.6 11 -1.9 28.5
16:45 1013 29.91 842 24.86 31.5 88.6 11 -2.1 28.2
16:50 1013 29.91 842 24.86 31.3 88.3 12 -1.5 29.3
16:55 1013 29.91 842 24.86 31.6 88.8 11 -1.7 29
17:00 1013 29.91 842 24.86 31.2 88.2 11 -2.5 27.5
17:05 1013 29.91 842 24.86 30.9 87.6 11 -2.4 27.6
17:10 1013 29.91 842 24.86 30.9 87.6 11 -2.1 28.1
17:15 1013 29.91 842 24.86 30.4 86.7 11 -2.7 27.1
17:20 1013 29.91 842 24.86 30.3 86.5 12 -2.4 27.7
17:25 1013 29.91 842 24.86 30.4 86.7 12 -2.3 27.8
17:30 1013 29.91 842 24.86 30.3 86.5 11 -3.4 25.9
17:35 1013 29.91 842 24.86 29.8 85.6 11 -2.9 26.7
17:40 1013 29.91 843 24.89 29.7 85.5 11 -3.3 26
17:45 1013 29.91 843 24.89 29.6 85.3 12 -2.8 27
17:50 1014 29.94 843 24.89 29.5 85.2 11 -3.4 25.9
17:55 1014 29.94 843 24.89 29.5 85 11 -3.8 25.2
18:00 1014 29.94 843 24.89 29.3 84.7 11 -3.4 25.9
18:05 1014 29.94 843 24.89 29.2 84.6 11 -4.1 24.7
18:10 1014 29.94 843 24.89 28.9 84 11 -4 24.7
18:15 1014 29.94 843 24.89 28.6 83.5 11 -4 24.8
18:20 1014 29.94 843 24.89 28.4 83.2 12 -3.9 25
18:25 1014 29.94 843 24.89 28.2 82.8 12 -3.9 25
18:30 1014 29.94 843 24.89 28 82.5 12 -4.1 24.6
18:35 1014 29.94 843 24.89 27.9 82.2 12 -3.6 25.6
18:40 1014 29.94 843 24.89 27.7 81.9 12 -3.9 25
18:45 1014 29.94 844 24.92 27.5 81.6 12 -4.1 24.7
18:50 1014 29.94 844 24.92 27.4 81.2 12 -4.2 24.4
18:55 1014 29.94 844 24.92 27.2 81 12 -4 24.8
19:00 1014 29.94 844 24.92 27.1 80.7 12 -4.3 24.2
19:05 1015 29.97 844 24.92 26.9 80.4 12 -4.3 24.2
19:10 1015 29.97 844 24.92 26.7 80.1 12 -4.3 24.2
19:15 1015 29.97 844 24.92 26.6 79.8 13 -3.8 25.2
19:20 1015 29.97 844 24.92 26.4 79.5 13 -4.1 24.6
19:25 1015 29.97 844 24.92 26.2 79.1 13 -3.8 25.1
19:30 1015 29.97 844 24.92 25.9 78.7 13 -4 24.9
19:35 1015 29.97 844 24.92 25.6 78.1 14 -3.8 25.1
19:40 1015 29.97 844 24.92 25.3 77.6 14 -3.6 25.4
19:45 1015 29.97 844 24.92 24.7 76.5 18 -0.9 30.4
19:50 1015 29.97 845 24.95 24 75.2 20 -0.2 31.6
19:55 1015 29.97 845 24.95 23.7 74.7 19 -0.7 30.7
20:00 1015 29.97 845 24.95 23.7 74.6 16 -3.8 25.2
20:05 1015 29.97 845 24.95 24.2 75.5 14 -4.5 23.8
20:10 1015 29.97 845 24.95 24.2 75.5 14 -4.7 23.6
20:15 1015 29.97 845 24.95 24 75.3 15 -4.3 24.2
20:20 1016 30 845 24.95 23.8 74.8 16 -3.7 25.3
20:25 1016 30 845 24.95 23.5 74.4 14 -4.9 23.2
20:30 1016 30 845 24.95 23.3 74 15 -4.9 23.3
20:35 1016 30 845 24.95 23.1 73.5 15 -4.9 23.2
20:40 1016 30 845 24.95 22.7 72.9 15 -5.3 22.5
20:45 1016 30 845 24.95 22.5 72.5 15 -5.2 22.6
20:50 1016 30 845 24.95 22.3 72.2 15 -5.5 22.1
20:55 1016 30 845 24.95 22.1 71.8 15 -5.2 22.6
21:00 1016 30 846 24.98 21.5 70.6 22 -0.7 30.7
21:05 1017 30.03 846 24.98 19.8 67.6 22 -2.3 27.9
21:10 1017 30.03 846 24.98 19.7 67.4 20 -3.6 25.6
21:15 1017 30.03 846 24.98 19.8 67.7 21 -3.2 26.3
21:20 1017 30.03 846 24.98 19.8 67.6 23 -1.6 29.1
21:25 1017 30.03 846 24.98 19.7 67.5 21 -3.2 26.3
21:30 1017 30.03 846 24.98 19.5 67.1 20 -3.9 25
21:35 1017 30.03 846 24.98 19.6 67.2 20 -3.8 25.1
21:40 1017 30.03 846 24.98 19.5 67 23 -2.1 28.2
21:45 1017 30.03 846 24.98 18.8 65.8 22 -3.2 26.2
21:50 1017 30.03 846 24.98 18.7 65.7 25 -1.8 28.7
21:55 1017 30.03 847 25.01 18.1 64.6 26 -1.7 29
22:00 1017 30.03 847 25.01 17.8 64.1 27 -1.3 29.6
22:05 1018 30.06 847 25.01 17.4 63.3 29 -0.9 30.4
22:10 1018 30.06 847 25.01 17.2 62.9 27 -1.9 28.5
22:15 1018 30.06 847 25.01 17.9 64.2 22 -3.7 25.3
22:20 1018 30.06 847 25.01 18.3 65 22 -3.7 25.3
22:25 1018 30.06 847 25.01 18.6 65.5 20 -4.6 23.7
22:30 1018 30.06 847 25.01 18.6 65.4 22 -3.4 25.9
22:35 1018 30.06 847 25.01 18.1 64.5 22 -4.1 24.7
22:40 1018 30.06 847 25.01 18.4 65.2 20 -5 23
22:45 1018 30.06 847 25.01 18.8 65.9 21 -4 24.8
22:50 1018 30.06 847 25.01 18.4 65.1 22 -3.3 26
22:55 1018 30.06 847 25.01 18 64.3 24 -3 26.6
23:00 1018 30.06 847 25.01 17.5 63.5 26 -2.3 27.9
23:05 1018 30.06 847 25.01 17.3 63.1 26 -2.2 28.1
23:10 1018 30.06 847 25.01 17.1 62.8 27 -2.1 28.1
23:15 1018 30.06 847 25.01 16.8 62.2 27 -2 28.5
23:20 1018 30.06 847 25.01 16.6 61.8 27 -2.2 28
23:25 1018 30.06 847 25.01 16.5 61.6 27 -2.4 27.8
23:30 1018 30.06 847 25.01 16.5 61.8 25 -3.3 26
23:35 1018 30.06 847 25.01 16.4 61.6 27 -2.6 27.4
23:40 1018 30.06 847 25.01 15.9 60.6 31 -1.2 29.9
23:45 1018 30.06 847 25.01 15 59 31 -2 28.4
23:50 1018 30.06 847 25.01 14.9 58.8 32 -1.6 29.1
23:55 1018 30.06 847 25.01 15.2 59.3 34 -0.6 31
24:00 1018 30.06 847 25.01 15.4 59.7 30 -1.8 28.8